| time (UTC) | temp F | wind direction | speed MPH | gust MPH | rain 1hr in | rain 24hr in | rain mn in | humidity % | barometer mb |
| 20260506185037 | 70 | 240 | 1.0 | 5.0 | 0.00 | 0.13 | 0.13 | 78 | 1008.5 |
| 20260506184027 | 70 | 219 | 1.0 | 6.0 | 0.00 | 0.13 | 0.13 | 78 | 1008.3 |
| 20260506183022 | 69 | 257 | 1.0 | 11.0 | 0.00 | 0.13 | 0.13 | 79 | 1008.5 |
| 20260506182016 | 69 | 178 | 2.0 | 9.0 | 0.00 | 0.13 | 0.13 | 79 | 1008.4 |
| 20260506181051 | 69 | 277 | 1.0 | 9.0 | 0.00 | 0.13 | 0.13 | 80 | 1008.6 |
| 20260506180019 | 69 | 148 | 2.0 | 12.0 | 0.00 | 0.13 | 0.13 | 82 | 1008.8 |
| 20260506175013 | 68 | 195 | 2.0 | 12.0 | 0.00 | 0.13 | 0.13 | 84 | 1008.6 |
| 20260506174027 | 67 | 268 | 1.0 | 7.0 | 0.00 | 0.13 | 0.13 | 85 | 1008.5 |
| 20260506173012 | 67 | 254 | 2.0 | 9.0 | 0.00 | 0.13 | 0.13 | 86 | 1008.7 |
| 20260506172036 | 66 | 230 | 1.0 | 10.0 | 0.00 | 0.13 | 0.13 | 87 | 1008.7 |
| 20260506171021 | 66 | 150 | 1.0 | 7.0 | 0.00 | 0.13 | 0.13 | 89 | 1008.7 |
| 20260506170038 | 65 | 311 | 1.0 | 6.0 | 0.00 | 0.13 | 0.13 | 90 | 1008.7 |
| 20260506165022 | 64 | 160 | 0.0 | 9.0 | 0.00 | 0.13 | 0.13 | 90 | 1009.0 |
| 20260506164018 | 64 | 196 | 0.0 | 10.0 | 0.00 | 0.13 | 0.13 | 90 | 1009.1 |
| 20260506163013 | 64 | 271 | 1.0 | 12.0 | 0.00 | 0.13 | 0.13 | 90 | 1009.0 |
| 20260506162027 | 64 | 121 | 1.0 | 8.0 | 0.00 | 0.13 | 0.13 | 91 | 1009.0 |
| 20260506161040 | 63 | 127 | 2.0 | 10.0 | 0.00 | 0.13 | 0.13 | 91 | 1009.1 |
| 20260506160029 | 63 | 161 | 0.0 | 9.0 | 0.02 | 0.13 | 0.13 | 90 | 1009.6 |
| 20260506155014 | 63 | 182 | 0.0 | 7.0 | 0.05 | 0.13 | 0.13 | 91 | 1009.6 |
| 20260506154038 | 62 | 140 | 0.0 | 6.0 | 0.08 | 0.13 | 0.13 | 90 | 1009.5 |
| 20260506153022 | 62 | 120 | 0.0 | 7.0 | 0.09 | 0.13 | 0.13 | 89 | 1009.7 |
| 20260506152017 | 62 | 180 | 1.0 | 5.0 | 0.10 | 0.13 | 0.13 | 89 | 1010.0 |
| 20260506151031 | 63 | 138 | 0.0 | 7.0 | 0.12 | 0.13 | 0.13 | 88 | 1010.4 |
| 20260506150021 | 63 | 207 | 1.0 | 5.0 | 0.11 | 0.11 | 0.11 | 87 | 1010.4 |
| 20260506145034 | 63 | 180 | 0.0 | 6.0 | 0.08 | 0.08 | 0.08 | 86 | 1010.6 |
| 20260506144023 | 64 | 136 | 0.0 | 3.0 | 0.05 | 0.05 | 0.05 | 85 | 1010.4 |
| 20260506143018 | 64 | 189 | 0.0 | 2.0 | 0.04 | 0.04 | 0.04 | 84 | 1010.3 |
| 20260506142014 | 65 | 175 | 0.0 | 3.0 | 0.03 | 0.03 | 0.03 | 82 | 1010.3 |
| 20260506141027 | 65 | 175 | 0.0 | 4.0 | 0.01 | 0.01 | 0.01 | 81 | 1010.4 |
| 20260506140015 | 65 | 157 | 0.0 | 5.0 | 0.00 | 0.00 | 0.00 | 80 | 1010.6 |
| 20260506135028 | 66 | 189 | 0.0 | 4.0 | 0.00 | 0.00 | 0.00 | 78 | 1010.8 |
| 20260506134013 | 66 | 192 | 0.0 | 5.0 | 0.00 | 0.00 | 0.00 | 78 | 1010.9 |
| 20260506133025 | 66 | 192 | 1.0 | 16.0 | 0.00 | 0.00 | 0.00 | 77 | 1010.5 |
| 20260506132041 | 66 | 170 | 1.0 | 7.0 | 0.00 | 0.00 | 0.00 | 77 | 1010.3 |
| 20260506131014 | 66 | 104 | 1.0 | 5.0 | 0.00 | 0.00 | 0.00 | 77 | 1010.2 |
| 20260506130022 | 66 | 169 | 1.0 | 8.0 | 0.00 | 0.00 | 0.00 | 76 | 1009.8 |
| 20260506125017 | 66 | 198 | 0.0 | 9.0 | 0.00 | 0.00 | 0.00 | 76 | 1009.9 |
| 20260506124101 | 66 | 163 | 1.0 | 7.0 | 0.00 | 0.00 | 0.00 | 76 | 1010.2 |
| 20260506123053 | 66 | 168 | 1.0 | 3.0 | 0.00 | 0.00 | 0.00 | 76 | 1010.4 |
| 20260506122047 | 66 | 184 | 1.0 | 8.0 | 0.00 | 0.00 | 0.00 | 76 | 1010.6 |
| 20260506121040 | 66 | 269 | 1.0 | 10.0 | 0.00 | 0.00 | 0.00 | 76 | 1010.5 |
| 20260506120030 | 66 | 168 | 0.0 | 6.0 | 0.00 | 0.00 | 0.00 | 75 | 1010.4 |
| 20260506115025 | 66 | 184 | 0.0 | 11.0 | 0.00 | 0.00 | 0.00 | 76 | 1010.4 |
| 20260506114039 | 66 | 249 | 0.0 | 8.0 | 0.00 | 0.00 | 0.00 | 76 | 1010.2 |
| 20260506113024 | 66 | 252 | 0.0 | 7.0 | 0.00 | 0.00 | 0.00 | 77 | 1009.7 |
| 20260506112019 | 66 | 138 | 0.0 | 12.0 | 0.00 | 0.00 | 0.00 | 77 | 1010.0 |
| 20260506111013 | 65 | 216 | 1.0 | 11.0 | 0.00 | 0.00 | 0.00 | 77 | 1009.7 |
| 20260506110020 | 65 | 152 | 0.0 | 9.0 | 0.00 | 0.00 | 0.00 | 76 | 1009.4 |
| 20260506105015 | 65 | 168 | 2.0 | 9.0 | 0.00 | 0.00 | 0.00 | 76 | 1009.4 |
| 20260506104025 | 65 | 302 | 1.0 | 7.0 | 0.00 | 0.00 | 0.00 | 77 | 1009.4 |
| 20260506103040 | 65 | 180 | 1.0 | 9.0 | 0.00 | 0.00 | 0.00 | 76 | 1009.4 |
| 20260506102014 | 65 | 140 | 1.0 | 5.0 | 0.00 | 0.00 | 0.00 | 76 | 1009.4 |
| 20260506101028 | 65 | 107 | 1.0 | 8.0 | 0.00 | 0.00 | 0.00 | 76 | 1009.3 |
| 20260506100036 | 66 | 166 | 1.0 | 8.0 | 0.00 | 0.00 | 0.00 | 76 | 1009.4 |
| 20260506095029 | 66 | 202 | 1.0 | 8.0 | 0.00 | 0.00 | 0.00 | 75 | 1009.5 |
| 20260506094025 | 66 | 142 | 1.0 | 5.0 | 0.00 | 0.00 | 0.00 | 75 | 1009.5 |
| 20260506093040 | 66 | 138 | 1.0 | 5.0 | 0.00 | 0.00 | 0.00 | 75 | 1009.5 |
| 20260506092054 | 66 | 186 | 0.0 | 4.0 | 0.00 | 0.00 | 0.00 | 74 | 1009.6 |
| 20260506091027 | 67 | 150 | 1.0 | 8.0 | 0.00 | 0.00 | 0.00 | 74 | 1009.7 |
| 20260506090037 | 67 | 154 | 0.0 | 5.0 | 0.00 | 0.00 | 0.00 | 73 | 1009.7 |
| 20260506085031 | 67 | 180 | 0.0 | 8.0 | 0.00 | 0.00 | 0.00 | 73 | 1009.7 |
| 20260506084045 | 67 | 161 | 0.0 | 8.0 | 0.00 | 0.00 | 0.00 | 72 | 1009.6 |
| 20260506083037 | 68 | 192 | 1.0 | 6.0 | 0.00 | 0.00 | 0.00 | 72 | 1009.5 |
| 20260506082023 | 68 | 189 | 1.0 | 4.0 | 0.00 | 0.00 | 0.00 | 71 | 1009.5 |
| 20260506081047 | 68 | 120 | 1.0 | 8.0 | 0.00 | 0.00 | 0.00 | 71 | 1009.5 |
| 20260506073044 | 70 | 117 | 0.0 | 6.0 | 0.00 | 0.00 | 0.00 | 68 | 1009.8 |
| 20260506072036 | 70 | 164 | 1.0 | 7.0 | 0.00 | 0.00 | 0.00 | 67 | 1009.9 |
| 20260506071018 | 70 | 159 | 0.0 | 11.0 | 0.00 | 0.00 | 0.00 | 67 | 1009.9 |
| 20260506062022 | 71 | 185 | 0.0 | 7.0 | 0.00 | 0.00 | 0.00 | 63 | 1010.1 |
| 20260506061016 | 71 | 98 | 0.0 | 6.0 | 0.00 | 0.00 | 0.00 | 62 | 1010.1 |
| 20260506051059 | 73 | 222 | 1.0 | 9.0 | 0.00 | 0.00 | 0.00 | 58 | 1010.5 |
| 20260506045042 | 73 | 163 | 1.0 | 8.0 | 0.00 | 0.00 | 0.00 | 56 | 1010.5 |
| 20260506044026 | 73 | 153 | 1.0 | 8.0 | 0.00 | 0.00 | 0.00 | 56 | 1010.5 |
| 20260506043020 | 73 | 188 | 1.0 | 12.0 | 0.00 | 0.00 | 0.00 | 56 | 1010.5 |
| 20260506042034 | 73 | 187 | 1.0 | 7.0 | 0.00 | 0.00 | 0.00 | 55 | 1010.5 |
| 20260506041023 | 73 | 172 | 1.0 | 10.0 | 0.00 | 0.00 | 0.00 | 55 | 1010.5 |
| 20260506040042 | 73 | 260 | 1.0 | 5.0 | 0.00 | 0.00 | 0.00 | 55 | 1010.5 |
| 20260506035026 | 73 | 194 | 1.0 | 12.0 | 0.00 | 0.00 | 0.00 | 54 | 1010.6 |
| 20260506034022 | 73 | 130 | 0.0 | 4.0 | 0.00 | 0.00 | 0.00 | 54 | 1010.5 |
| 20260506033017 | 73 | 197 | 2.0 | 8.0 | 0.00 | 0.00 | 0.00 | 54 | 1010.5 |
| 20260506032030 | 73 | 176 | 1.0 | 8.0 | 0.00 | 0.00 | 0.00 | 53 | 1010.4 |
| 20260506031015 | 72 | 167 | 2.0 | 8.0 | 0.00 | 0.00 | 0.00 | 53 | 1010.4 |
| 20260506030032 | 72 | 165 | 1.0 | 11.0 | 0.00 | 0.00 | 0.00 | 54 | 1010.4 |
| 20260506025017 | 71 | 153 | 0.0 | 4.0 | 0.00 | 0.00 | 0.00 | 53 | 1010.4 |
| 20260506024040 | 71 | 189 | 0.0 | 8.0 | 0.00 | 0.00 | 0.00 | 52 | 1010.6 |
| 20260506023025 | 72 | 115 | 0.0 | 2.0 | 0.00 | 0.00 | 0.00 | 52 | 1010.6 |
| 20260506022019 | 72 | 114 | 1.0 | 3.0 | 0.00 | 0.00 | 0.00 | 51 | 1010.7 |
| 20260506021053 | 73 | 116 | 0.0 | 0.0 | 0.00 | 0.00 | 0.00 | 51 | 1010.8 |
| 20260506020020 | 73 | 116 | 0.0 | 3.0 | 0.00 | 0.00 | 0.00 | 49 | 1010.6 |
| 20260506015014 | 74 | 123 | 1.0 | 4.0 | 0.00 | 0.00 | 0.00 | 45 | 1010.5 |
| 20260506014029 | 74 | 123 | 0.0 | 4.0 | 0.00 | 0.00 | 0.00 | 45 | 1010.4 |
| 20260506013023 | 75 | 122 | 0.0 | 3.0 | 0.00 | 0.00 | 0.00 | 47 | 1010.2 |
| 20260506012017 | 75 | 122 | 0.0 | 2.0 | 0.00 | 0.00 | 0.00 | 46 | 1010.2 |
| 20260506011031 | 75 | 123 | 0.0 | 4.0 | 0.00 | 0.00 | 0.00 | 42 | 1010.1 |
| 20260506010018 | 75 | 147 | 1.0 | 4.0 | 0.00 | 0.00 | 0.00 | 42 | 1009.9 |
| 20260506005032 | 76 | 151 | 0.0 | 2.0 | 0.00 | 0.00 | 0.00 | 42 | 1009.8 |
| 20260506004016 | 77 | 140 | 0.0 | 3.0 | 0.00 | 0.00 | 0.00 | 42 | 1009.6 |
| 20260506003031 | 78 | 124 | 0.0 | 1.0 | 0.00 | 0.00 | 0.00 | 43 | 1009.6 |
| 20260506002025 | 79 | 124 | 0.0 | 2.0 | 0.00 | 0.00 | 0.00 | 37 | 1009.5 |
| 20260506001019 | 79 | 169 | 0.0 | 9.0 | 0.00 | 0.00 | 0.00 | 36 | 1009.5 |
| 20260506000028 | 79 | 186 | 0.0 | 3.0 | 0.00 | 0.00 | 0.00 | 36 | 1009.3 |
| 20260505235022 | 80 | 186 | 0.0 | 7.0 | 0.00 | 0.00 | 0.00 | 35 | 1009.2 |
| 20260505234016 | 80 | 117 | 0.0 | 5.0 | 0.00 | 0.00 | 0.00 | 35 | 1009.1 |
| 20260505233031 | 80 | 182 | 0.0 | 9.0 | 0.00 | 0.00 | 0.00 | 35 | 1009.0 |
| 20260505232042 | 80 | 142 | 0.0 | 9.0 | 0.00 | 0.00 | 0.00 | 34 | 1009.1 |
| 20260505231036 | 81 | 132 | 0.0 | 8.0 | 0.00 | 0.00 | 0.00 | 34 | 1009.1 |
| 20260505230025 | 81 | 196 | 0.0 | 8.0 | 0.00 | 0.00 | 0.00 | 34 | 1009.2 |
| 20260505225036 | 81 | 180 | 1.0 | 7.0 | 0.00 | 0.00 | 0.00 | 33 | 1009.1 |
| 20260505224028 | 82 | 161 | 1.0 | 6.0 | 0.00 | 0.00 | 0.00 | 33 | 1009.2 |
| 20260505223013 | 82 | 172 | 0.0 | 11.0 | 0.00 | 0.00 | 0.00 | 32 | 1009.2 |
| 20260505222036 | 82 | 157 | 2.0 | 10.0 | 0.00 | 0.00 | 0.00 | 31 | 1009.0 |
| 20260505221021 | 83 | 220 | 2.0 | 10.0 | 0.00 | 0.00 | 0.00 | 31 | 1009.2 |
| 20260505220038 | 84 | 216 | 1.0 | 12.0 | 0.00 | 0.00 | 0.00 | 31 | 1009.2 |
| 20260505215031 | 84 | 159 | 1.0 | 14.0 | 0.00 | 0.00 | 0.00 | 32 | 1009.1 |
| 20260505214016 | 84 | 182 | 0.0 | 13.0 | 0.00 | 0.00 | 0.00 | 31 | 1009.2 |
| 20260505213029 | 85 | 281 | 0.0 | 15.0 | 0.00 | 0.00 | 0.00 | 32 | 1008.9 |
| 20260505212023 | 85 | 150 | 2.0 | 15.0 | 0.00 | 0.00 | 0.00 | 33 | 1008.8 |
| 20260505211036 | 85 | 255 | 4.0 | 14.0 | 0.00 | 0.00 | 0.00 | 30 | 1008.7 |
| 20260505210022 | 85 | 277 | 1.0 | 11.0 | 0.00 | 0.00 | 0.00 | 30 | 1008.8 |
| 20260505205044 | 85 | 140 | 3.0 | 13.0 | 0.00 | 0.00 | 0.00 | 31 | 1008.8 |
| 20260505204038 | 86 | 233 | 3.0 | 12.0 | 0.00 | 0.00 | 0.00 | 31 | 1008.8 |
| 20260505203022 | 86 | 264 | 2.0 | 9.0 | 0.00 | 0.00 | 0.00 | 32 | 1008.8 |
| 20260505202017 | 85 | 122 | 2.0 | 12.0 | 0.00 | 0.00 | 0.00 | 31 | 1008.8 |
| 20260505201031 | 86 | 325 | 4.0 | 14.0 | 0.00 | 0.00 | 0.00 | 30 | 1009.0 |
| 20260505200018 | 86 | 159 | 2.0 | 15.0 | 0.00 | 0.00 | 0.00 | 31 | 1009.1 |
| 20260505195048 | 86 | 234 | 3.0 | 15.0 | 0.00 | 0.00 | 0.00 | 32 | 1009.2 |
| 20260505194022 | 86 | 153 | 1.0 | 10.0 | 0.00 | 0.00 | 0.00 | 32 | 1009.2 |
| 20260505193015 | 86 | 145 | 1.0 | 13.0 | 0.00 | 0.00 | 0.00 | 34 | 1009.4 |
| 20260505192029 | 86 | 161 | 2.0 | 11.0 | 0.00 | 0.00 | 0.00 | 33 | 1009.5 |
| 20260505191023 | 86 | 132 | 2.0 | 8.0 | 0.00 | 0.00 | 0.00 | 32 | 1009.5 |
| 20260505190031 | 86 | 165 | 2.0 | 12.0 | 0.00 | 0.00 | 0.00 | 34 | 1009.6 |